Michelle 1 — 9HA2395 — position and weather

sailwx.info

Track history (hours):
 
Tides and Currents Weather Stations Pressure Air Temp Water Temp Dewpoint Dewpoint Depression Visibility Wind Speed Wind Dir Waves Ship Positions

Michelle 1

Last reported at 2017-Nov-16 20:56 UTC. Time now 2017-Nov-21 02:52 UTC.
Position N 40°55' E 028°51'.

Length 116 m; draft 4.6 m.

Type: Cargo ship. MMSI: 248527000.

Date/timePositionNaut miles runAvg speedWind from/ knotsBaromVisibWave heightAir tempDewpointWater temp
2017-Nov-16 20:56N 40°55' E 028°51'6 0.8
2017-Nov-16 13:45N 40°58' E 028°58'329 7.5
2017-Nov-14 17:59N 46°19' E 030°43'2 0.2
2017-Nov-14 06:56N 46°19' E 030°40'0 0.0
2017-Nov-14 06:20N 46°19' E 030°40'0 0.0
2017-Nov-14 05:56N 46°19' E 030°40'0 0.0
2017-Nov-14 05:24N 46°19' E 030°40'0 0.0
2017-Nov-14 05:01N 46°19' E 030°40'0 0.0
2017-Nov-14 04:03N 46°19' E 030°40'0 0.2
2017-Nov-14 03:59N 46°19' E 030°40'0 0.0
2017-Nov-14 03:05N 46°19' E 030°40'0 0.1
2017-Nov-14 03:00N 46°19' E 030°40'0 0.0
2017-Nov-14 01:59N 46°19' E 030°40'0 0.0
2017-Nov-14 00:58N 46°19' E 030°40'0 0.0
2017-Nov-13 23:59N 46°19' E 030°40'0 0.0
2017-Nov-13 23:30N 46°19' E 030°40'0 0.0
2017-Nov-13 22:57N 46°19' E 030°40'0 0.0
2017-Nov-13 21:59N 46°19' E 030°40'0 0.0
2017-Nov-13 01:00N 46°19' E 030°40'0 0.0
2017-Nov-12 21:21N 46°19' E 030°40'0 0.0
2017-Nov-12 17:59N 46°19' E 030°40'0 0.0
2017-Nov-12 12:19N 46°19' E 030°40'0 0.0
2017-Nov-12 11:59N 46°19' E 030°40'4 1.3
2017-Nov-12 08:55N 46°16' E 030°43'0 0.0
2017-Nov-12 07:54N 46°16' E 030°43'0 0.0
2017-Nov-12 06:59N 46°16' E 030°43'0 0.0
2017-Nov-12 06:06N 46°16' E 030°43'0 0.0
2017-Nov-12 05:59N 46°16' E 030°43'0 0.0
2017-Nov-12 05:31N 46°16' E 030°43'0 0.0
2017-Nov-12 05:00N 46°16' E 030°43'0 0.0
2017-Nov-12 04:30N 46°16' E 030°43'0 0.0
2017-Nov-12 04:00N 46°16' E 030°43'0 0.1
2017-Nov-12 03:30N 46°16' E 030°43'0 0.0
2017-Nov-12 02:53N 46°16' E 030°43'0 0.0
2017-Nov-12 02:30N 46°16' E 030°43'0 0.1
2017-Nov-12 02:00N 46°16' E 030°43'0 0.0
2017-Nov-12 01:30N 46°16' E 030°43'0 0.0
2017-Nov-12 00:53N 46°16' E 030°43'0 0.0
2017-Nov-12 00:30N 46°16' E 030°43'0 0.0
2017-Nov-11 12:39N 46°15' E 030°43'0 0.1
2017-Nov-11 11:59N 46°15' E 030°43'0 0.0
2017-Nov-11 11:30N 46°15' E 030°43'0 0.0
2017-Nov-11 10:59N 46°15' E 030°43'0 0.0
2017-Nov-11 10:30N 46°15' E 030°43'0 0.1
2017-Nov-11 09:56N 46°15' E 030°43'0 0.0
2017-Nov-11 08:39N 46°15' E 030°43'0 0.0
2017-Nov-11 07:58N 46°15' E 030°43'6 0.2
2017-Nov-09 23:09N 46°17' E 030°52'124 8.8
2017-Nov-09 09:10N 44°24' E 029°43'2 9.6
2017-Nov-09 08:59N 44°22' E 029°42'6 9.5
2017-Nov-09 08:19N 44°17' E 029°37'3 9.8
2017-Nov-09 08:00N 44°14' E 029°34'510.1
2017-Nov-09 07:30N 44°10' E 029°31'510.0
2017-Nov-09 07:00N 44°06' E 029°27'510.0
2017-Nov-09 06:30N 44°02' E 029°23'5 9.9
2017-Nov-09 06:00N 43°58' E 029°19'510.1
2017-Nov-09 05:30N 43°54' E 029°15'510.0
2017-Nov-09 05:00N 43°50' E 029°11'5 9.9
2017-Nov-09 04:30N 43°45' E 029°07'510.1
2017-Nov-09 04:00N 43°41' E 029°03'510.4
2017-Nov-09 03:30N 43°37' E 028°58'610.4
2017-Nov-09 02:57N 43°33' E 028°54'  
Track history (hours):
 
Tides and Currents Weather Stations Pressure Air Temp Water Temp Dewpoint Dewpoint Depression Visibility Wind Speed Wind Dir Waves Ship Positions

Michelle 1

Last reported at 2017-Nov-16 20:56 UTC. Time now 2017-Nov-21 02:52 UTC.
Position N 40°55' E 028°51'.

Length 116 m; draft 4.6 m.

Type: Cargo ship. MMSI: 248527000.

Date/timePositionNaut miles runAvg speedWind from/ knotsBaromVisibWave heightAir tempDewpointWater temp
2017-Nov-16 20:56N 40°55' E 028°51'6 0.8
2017-Nov-16 13:45N 40°58' E 028°58'329 7.5
2017-Nov-14 17:59N 46°19' E 030°43'2 0.2
2017-Nov-14 06:56N 46°19' E 030°40'0 0.0
2017-Nov-14 06:20N 46°19' E 030°40'0 0.0
2017-Nov-14 05:56N 46°19' E 030°40'0 0.0
2017-Nov-14 05:24N 46°19' E 030°40'0 0.0
2017-Nov-14 05:01N 46°19' E 030°40'0 0.0
2017-Nov-14 04:03N 46°19' E 030°40'0 0.2
2017-Nov-14 03:59N 46°19' E 030°40'0 0.0
2017-Nov-14 03:05N 46°19' E 030°40'0 0.1
2017-Nov-14 03:00N 46°19' E 030°40'0 0.0
2017-Nov-14 01:59N 46°19' E 030°40'0 0.0
2017-Nov-14 00:58N 46°19' E 030°40'0 0.0
2017-Nov-13 23:59N 46°19' E 030°40'0 0.0
2017-Nov-13 23:30N 46°19' E 030°40'0 0.0
2017-Nov-13 22:57N 46°19' E 030°40'0 0.0
2017-Nov-13 21:59N 46°19' E 030°40'0 0.0
2017-Nov-13 01:00N 46°19' E 030°40'0 0.0
2017-Nov-12 21:21N 46°19' E 030°40'0 0.0
2017-Nov-12 17:59N 46°19' E 030°40'0 0.0
2017-Nov-12 12:19N 46°19' E 030°40'0 0.0
2017-Nov-12 11:59N 46°19' E 030°40'4 1.3
2017-Nov-12 08:55N 46°16' E 030°43'0 0.0
2017-Nov-12 07:54N 46°16' E 030°43'0 0.0
2017-Nov-12 06:59N 46°16' E 030°43'0 0.0
2017-Nov-12 06:06N 46°16' E 030°43'0 0.0
2017-Nov-12 05:59N 46°16' E 030°43'0 0.0
2017-Nov-12 05:31N 46°16' E 030°43'0 0.0
2017-Nov-12 05:00N 46°16' E 030°43'0 0.0
2017-Nov-12 04:30N 46°16' E 030°43'0 0.0
2017-Nov-12 04:00N 46°16' E 030°43'0 0.1
2017-Nov-12 03:30N 46°16' E 030°43'0 0.0
2017-Nov-12 02:53N 46°16' E 030°43'0 0.0
2017-Nov-12 02:30N 46°16' E 030°43'0 0.1
2017-Nov-12 02:00N 46°16' E 030°43'0 0.0
2017-Nov-12 01:30N 46°16' E 030°43'0 0.0
2017-Nov-12 00:53N 46°16' E 030°43'0 0.0
2017-Nov-12 00:30N 46°16' E 030°43'0 0.0
2017-Nov-11 12:39N 46°15' E 030°43'0 0.1
2017-Nov-11 11:59N 46°15' E 030°43'0 0.0
2017-Nov-11 11:30N 46°15' E 030°43'0 0.0
2017-Nov-11 10:59N 46°15' E 030°43'0 0.0
2017-Nov-11 10:30N 46°15' E 030°43'0 0.1
2017-Nov-11 09:56N 46°15' E 030°43'0 0.0
2017-Nov-11 08:39N 46°15' E 030°43'0 0.0
2017-Nov-11 07:58N 46°15' E 030°43'6 0.2
2017-Nov-09 23:09N 46°17' E 030°52'124 8.8
2017-Nov-09 09:10N 44°24' E 029°43'2 9.6
2017-Nov-09 08:59N 44°22' E 029°42'6 9.5
2017-Nov-09 08:19N 44°17' E 029°37'3 9.8
2017-Nov-09 08:00N 44°14' E 029°34'510.1
2017-Nov-09 07:30N 44°10' E 029°31'510.0
2017-Nov-09 07:00N 44°06' E 029°27'510.0
2017-Nov-09 06:30N 44°02' E 029°23'5 9.9
2017-Nov-09 06:00N 43°58' E 029°19'510.1
2017-Nov-09 05:30N 43°54' E 029°15'510.0
2017-Nov-09 05:00N 43°50' E 029°11'5 9.9
2017-Nov-09 04:30N 43°45' E 029°07'510.1
2017-Nov-09 04:00N 43°41' E 029°03'510.4
2017-Nov-09 03:30N 43°37' E 028°58'610.4
2017-Nov-09 02:57N 43°33' E 028°54'  

Dump ship's entire track history